Time;durP1;ratioP1;P1;durP2;ratioP2;P2;SDS_P1;SDS_P2;PMS_P1;PMS_P2;Temp;Humidity;BMP_temperature;BMP_pressure;BME280_temperature;BME280_humidity;BME280_pressure;Samples;Min_cycle;Max_cycle;Signal;HPM_P1;HPM_P2
2022/03/28 00:02:02;;;;;;;;;;;;;;;;;;4980617;28;1526;-69
2022/03/28 00:04:27;;;;;;;;;;;;;;;;;;4982915;28;1462;-67
2022/03/28 00:06:52;;;;;;;;;;;;;;;;;;4983610;28;1299;-68
2022/03/28 00:09:17;;;;;;;;;;;;;;;;;;4982928;28;1373;-68
2022/03/28 00:11:42;;;;;;;;;;;;;;;;;;4983388;28;1898;-67
2022/03/28 00:14:08;;;;;;;;;;;;;;;;;;4983577;28;1244;-68
2022/03/28 00:16:33;;;;;;;;;;;;;;;;;;4982840;28;1477;-68
2022/03/28 00:18:58;;;;;;;;;;;;;;;;;;4983708;28;1193;-67
2022/03/28 00:21:25;;;;;;;;;;;;;;;;;;4983165;28;1106;-68
2022/03/28 00:23:50;;;;;;;;;;;;;;;;;;4983659;28;1236;-68
2022/03/28 00:26:15;;;;;;;;;;;;;;;;;;4983164;28;1279;-68
2022/03/28 00:28:41;;;;;;;;;;;;;;;;;;4983558;28;1257;-68
2022/03/28 00:31:06;;;;;;;;;;;;;;;;;;4982054;28;1942;-67
2022/03/28 00:33:31;;;;;;;;;;;;;;;;;;4982739;28;1234;-68
2022/03/28 00:35:57;;;;;;;;;;;;;;;;;;4982623;28;1327;-68
2022/03/28 00:38:22;;;;;;;;;;;;;;;;;;4982841;28;1311;-68
2022/03/28 00:40:47;;;;;;;;;;;;;;;;;;4982914;28;1268;-68
2022/03/28 00:43:12;;;;;;;;;;;;;;;;;;4983021;28;1237;-68
2022/03/28 00:45:39;;;;;;;;;;;;;;;;;;4981591;28;1446;-68
2022/03/28 00:48:05;;;;;;;;;;;;;;;;;;4983440;28;1320;-68
2022/03/28 00:50:30;;;;;;;;;;;;;;;;;;4981832;28;1964;-69
2022/03/28 00:52:56;;;;;;;;;;;;;;;;;;4983093;28;1249;-68
2022/03/28 00:55:21;;;;;;;;;;;;;;;;;;4982215;28;1307;-69
2022/03/28 00:57:46;;;;;;;;;;;;;;;;;;4982355;28;1199;-69
2022/03/28 01:00:12;;;;;;;;;;;;;;;;;;4981772;28;1461;-69
2022/03/28 01:02:38;;;;;;;;;;;;;;;;;;4982493;28;1237;-69
2022/03/28 01:05:03;;;;;;;;;;;;;;;;;;4982712;28;1182;-68
2022/03/28 01:07:28;;;;;;;;;;;;;;;;;;4982568;28;1400;-68
2022/03/28 01:09:59;;;;;;;;;;;;;;;;;;4981749;28;1581;-68
2022/03/28 01:12:27;;;;;;;;;;;;;;;;;;4982732;28;1895;-69
2022/03/28 01:14:53;;;;;;;;;;;;;;;;;;4981533;28;1324;-68
2022/03/28 01:20:02;;;;;;;;;;;;;;;;;;4982378;28;1078;-68
2022/03/28 01:22:28;;;;;;;;;;;;;;;;;;4982743;28;1122;-68
2022/03/28 01:24:53;;;;;;;;;;;;;;;;;;4982076;28;1426;-68
2022/03/28 01:27:19;;;;;;;;;;;;;;;;;;4978698;28;1403;-69
2022/03/28 01:29:44;;;;;;;;;;;;;;;;;;4981962;28;1281;-67
2022/03/28 01:32:10;;;;;;;;;;;;;;;;;;4981507;28;1906;-67
2022/03/28 01:34:35;;;;;;;;;;;;;;;;;;4982367;28;1264;-67
2022/03/28 01:37:00;;;;;;;;;;;;;;;;;;4981405;28;1414;-68
2022/03/28 01:39:26;;;;;;;;;;;;;;;;;;4982059;28;1260;-67
2022/03/28 01:41:51;;;;;;;;;;;;;;;;;;4981294;28;1438;-67
2022/03/28 01:44:16;;;;;;;;;;;;;;;;;;4981954;28;1269;-67
2022/03/28 01:46:44;;;;;;;;;;;;;;;;;;4980925;28;1395;-67
2022/03/28 01:49:09;;;;;;;;;;;;;;;;;;4982365;28;1125;-68
2022/03/28 01:51:35;;;;;;;;;;;;;;;;;;4981794;28;1914;-68
2022/03/28 01:54:00;;;;;;;;;;;;;;;;;;4982154;28;1308;-68
2022/03/28 01:56:25;;;;;;;;;;;;;;;;;;4980459;28;1533;-68
2022/03/28 01:58:50;;;;;;;;;;;;;;;;;;4981969;28;1244;-68
2022/03/28 02:01:15;;;;;;;;;;;;;;;;;;4981395;28;1347;-68
2022/03/28 02:03:41;;;;;;;;;;;;;;;;;;4980503;28;1548;-69
2022/03/28 02:06:07;;;;;;;;;;;;;;;;;;4981730;28;1324;-69
2022/03/28 02:08:32;;;;;;;;;;;;;;;;;;4980452;28;1415;-69
2022/03/28 02:10:57;;;;;;;;;;;;;;;;;;4982132;28;1894;-69
2022/03/28 02:13:23;;;;;;;;;;;;;;;;;;4981064;28;1411;-69
2022/03/28 02:15:48;;;;;;;;;;;;;;;;;;4980646;28;1527;-69
2022/03/28 02:18:13;;;;;;;;;;;;;;;;;;4981481;28;1300;-68
2022/03/28 02:20:40;;;;;;;;;;;;;;;;;;4980047;28;1362;-68
2022/03/28 02:23:05;;;;;;;;;;;;;;;;;;4980570;28;1467;-68
2022/03/28 02:25:35;;;;;;;;;;;;;;;;;;4981166;28;1331;-68
2022/03/28 02:28:01;;;;;;;;;;;;;;;;;;4981556;28;1223;-68
2022/03/28 02:30:26;;;;;;;;;;;;;;;;;;4981603;28;1977;-67
2022/03/28 02:32:51;;;;;;;;;;;;;;;;;;4981127;28;1272;-67
2022/03/28 02:35:16;;;;;;;;;;;;;;;;;;4980174;28;1431;-67
2022/03/28 02:37:41;;;;;;;;;;;;;;;;;;4980885;28;1315;-68
2022/03/28 02:40:08;;;;;;;;;;;;;;;;;;4981659;28;1252;-67
2022/03/28 02:42:33;;;;;;;;;;;;;;;;;;4981041;28;1240;-67
2022/03/28 02:44:58;;;;;;;;;;;;;;;;;;4980803;28;1409;-68
2022/03/28 02:47:23;;;;;;;;;;;;;;;;;;4981272;28;1287;-68
2022/03/28 02:49:49;;;;;;;;;;;;;;;;;;4980257;28;1410;-68
2022/03/28 02:52:14;;;;;;;;;;;;;;;;;;4980794;28;1898;-68
2022/03/28 02:54:39;;;;;;;;;;;;;;;;;;4979978;28;1320;-67
2022/03/28 02:57:04;;;;;;;;;;;;;;;;;;4980508;28;1454;-69
2022/03/28 02:59:30;;;;;;;;;;;;;;;;;;4981320;28;1268;-67
2022/03/28 03:01:55;;;;;;;;;;;;;;;;;;4981016;28;1261;-67
2022/03/28 03:04:20;;;;;;;;;;;;;;;;;;4981528;28;1260;-67
2022/03/28 03:06:45;;;;;;;;;;;;;;;;;;4980746;28;1318;-67
2022/03/28 03:09:10;;;;;;;;;;;;;;;;;;4980603;28;1177;-68
2022/03/28 03:11:35;;;;;;;;;;;;;;;;;;4980112;28;1957;-68
2022/03/28 03:14:02;;;;;;;;;;;;;;;;;;4981007;28;1296;-67
2022/03/28 03:16:28;;;;;;;;;;;;;;;;;;4979823;28;1454;-67
2022/03/28 03:18:53;;;;;;;;;;;;;;;;;;4962519;28;1665;-67
2022/03/28 03:21:19;;;;;;;;;;;;;;;;;;4980394;28;1621;-67
2022/03/28 03:23:44;;;;;;;;;;;;;;;;;;4981085;28;1296;-67
2022/03/28 03:26:09;;;;;;;;;;;;;;;;;;4978476;28;1522;-68
2022/03/28 03:28:35;;;;;;;;;;;;;;;;;;4980107;28;1302;-67
2022/03/28 03:31:00;;;;;;;;;;;;;;;;;;4979469;28;1975;-68
2022/03/28 03:33:25;;;;;;;;;;;;;;;;;;4983378;28;1426;-67
2022/03/28 03:35:50;;;;;;;;;;;;;;;;;;4983421;28;1355;-68
2022/03/28 03:38:15;;;;;;;;;;;;;;;;;;4983893;28;1319;-68
2022/03/28 03:40:41;;;;;;;;;;;;;;;;;;4984387;28;1295;-67
2022/03/28 03:43:06;;;;;;;;;;;;;;;;;;4983730;28;1190;-67
2022/03/28 03:45:31;;;;;;;;;;;;;;;;;;4982728;28;1462;-67
2022/03/28 03:47:57;;;;;;;;;;;;;;;;;;4983606;28;1577;-67
2022/03/28 03:50:22;;;;;;;;;;;;;;;;;;4981577;28;1960;-70
2022/03/28 03:52:48;;;;;;;;;;;;;;;;;;4983611;28;1339;-67
2022/03/28 03:55:13;;;;;;;;;;;;;;;;;;4983583;28;1260;-68
2022/03/28 03:57:38;;;;;;;;;;;;;;;;;;4983203;28;1431;-68
2022/03/28 04:00:04;;;;;;;;;;;;;;;;;;4984494;28;1489;-68
2022/03/28 04:02:29;;;;;;;;;;;;;;;;;;4982634;28;1780;-68
2022/03/28 04:04:55;;;;;;;;;;;;;;;;;;4980641;28;1489;-68
2022/03/28 04:07:20;;;;;;;;;;;;;;;;;;4983147;28;1327;-68
2022/03/28 04:09:45;;;;;;;;;;;;;;;;;;4983353;28;1334;-68
2022/03/28 04:12:12;;;;;;;;;;;;;;;;;;4983967;28;1902;-68
2022/03/28 04:14:38;;;;;;;;;;;;;;;;;;4983658;28;1253;-68
2022/03/28 04:17:03;;;;;;;;;;;;;;;;;;4982189;28;1506;-68
2022/03/28 04:19:28;;;;;;;;;;;;;;;;;;4982911;28;1430;-68
2022/03/28 04:21:54;;;;;;;;;;;;;;;;;;4983580;28;1280;-68
2022/03/28 04:24:20;;;;;;;;;;;;;;;;;;4983507;28;1395;-68
2022/03/28 04:26:45;;;;;;;;;;;;;;;;;;4982126;28;1442;-68
2022/03/28 04:29:10;;;;;;;;;;;;;;;;;;4982835;28;1177;-68
2022/03/28 04:31:40;;;;;;;;;;;;;;;;;;4982398;28;1973;-68
2022/03/28 04:34:05;;;;;;;;;;;;;;;;;;4983359;28;1174;-68
2022/03/28 04:36:30;;;;;;;;;;;;;;;;;;4982075;28;1827;-68
2022/03/28 04:38:55;;;;;;;;;;;;;;;;;;4983150;28;1253;-68
2022/03/28 04:41:21;;;;;;;;;;;;;;;;;;4982270;28;1486;-67
2022/03/28 04:43:46;;;;;;;;;;;;;;;;;;4979583;28;1434;-67
2022/03/28 04:46:11;;;;;;;;;;;;;;;;;;4983008;28;1288;-67
2022/03/28 04:48:37;;;;;;;;;;;;;;;;;;4982010;28;1323;-68
2022/03/28 04:51:02;;;;;;;;;;;;;;;;;;4982552;28;1972;-68
2022/03/28 04:53:27;;;;;;;;;;;;;;;;;;4983727;28;1261;-68
2022/03/28 04:55:52;;;;;;;;;;;;;;;;;;4982498;28;1322;-69
2022/03/28 04:58:18;;;;;;;;;;;;;;;;;;4982904;28;1355;-68
2022/03/28 05:00:43;;;;;;;;;;;;;;;;;;4982998;28;1252;-68
2022/03/28 05:03:08;;;;;;;;;;;;;;;;;;4981680;28;1486;-68
2022/03/28 05:05:33;;;;;;;;;;;;;;;;;;4982180;28;1438;-68
2022/03/28 05:07:59;;;;;;;;;;;;;;;;;;4982255;28;1358;-67
2022/03/28 05:10:24;;;;;;;;;;;;;;;;;;4982556;28;1973;-67
2022/03/28 05:12:49;;;;;;;;;;;;;;;;;;4982858;28;1253;-67
2022/03/28 05:15:14;;;;;;;;;;;;;;;;;;4981918;28;1364;-67
2022/03/28 05:17:40;;;;;;;;;;;;;;;;;;4981587;28;1486;-67
2022/03/28 05:20:06;;;;;;;;;;;;;;;;;;4980617;28;1265;-68
2022/03/28 05:22:31;;;;;;;;;;;;;;;;;;4982403;28;1614;-67
2022/03/28 05:24:58;;;;;;;;;;;;;;;;;;4981434;28;1252;-67
2022/03/28 05:27:23;;;;;;;;;;;;;;;;;;4980830;28;1741;-67
2022/03/28 05:29:49;;;;;;;;;;;;;;;;;;4982066;28;1225;-68
2022/03/28 05:32:15;;;;;;;;;;;;;;;;;;4982134;28;1970;-68
2022/03/28 05:34:40;;;;;;;;;;;;;;;;;;4982378;28;1383;-68
2022/03/28 05:37:08;;;;;;;;;;;;;;;;;;4981737;28;1415;-68
2022/03/28 05:39:34;;;;;;;;;;;;;;;;;;4981592;28;1317;-68
2022/03/28 05:41:59;;;;;;;;;;;;;;;;;;4980941;28;1538;-68
2022/03/28 05:44:25;;;;;;;;;;;;;;;;;;4981968;28;1387;-67
2022/03/28 05:46:51;;;;;;;;;;;;;;;;;;4982183;28;1252;-67
2022/03/28 05:49:16;;;;;;;;;;;;;;;;;;4981788;28;1261;-67
2022/03/28 05:51:41;;;;;;;;;;;;;;;;;;4982073;28;1906;-68
2022/03/28 05:54:07;;;;;;;;;;;;;;;;;;4982080;28;1260;-67
2022/03/28 05:56:32;;;;;;;;;;;;;;;;;;4979827;28;1342;-67
2022/03/28 05:58:57;;;;;;;;;;;;;;;;;;4981998;28;1074;-67
2022/03/28 06:01:22;;;;;;;;;;;;;;;;;;4981519;28;1253;-67
2022/03/28 06:03:47;;;;;;;;;;;;;;;;;;4980762;28;1446;-67
2022/03/28 06:06:13;;;;;;;;;;;;;;;;;;4981552;28;1422;-68
2022/03/28 06:08:38;;;;;;;;;;;;;;;;;;4981523;28;1377;-67
2022/03/28 06:11:03;;;;;;;;;;;;;;;;;;4980278;28;1947;-67
2022/03/28 06:13:29;;;;;;;;;;;;;;;;;;4979803;28;1304;-68
2022/03/28 06:15:55;;;;;;;;;;;;;;;;;;4980011;28;1474;-68
2022/03/28 06:18:20;;;;;;;;;;;;;;;;;;4981699;28;1260;-67
2022/03/28 06:20:45;;;;;;;;;;;;;;;;;;4980395;28;1466;-67
2022/03/28 06:23:12;;;;;;;;;;;;;;;;;;4981902;28;1186;-67
2022/03/28 06:25:37;;;;;;;;;;;;;;;;;;4981357;28;1312;-68
2022/03/28 06:28:02;;;;;;;;;;;;;;;;;;4970835;28;1403;-67
2022/03/28 06:30:27;;;;;;;;;;;;;;;;;;4980052;28;1899;-68
2022/03/28 06:32:53;;;;;;;;;;;;;;;;;;4980688;28;1351;-67
2022/03/28 06:35:18;;;;;;;;;;;;;;;;;;4981358;28;1347;-68
2022/03/28 06:37:43;;;;;;;;;;;;;;;;;;4981014;28;1431;-68
2022/03/28 06:40:09;;;;;;;;;;;;;;;;;;4981282;28;1351;-67
2022/03/28 06:42:34;;;;;;;;;;;;;;;;;;4980271;28;1556;-67
2022/03/28 06:44:59;;;;;;;;;;;;;;;;;;4980984;28;1308;-67
2022/03/28 06:47:25;;;;;;;;;;;;;;;;;;4981727;28;1284;-67
2022/03/28 06:49:50;;;;;;;;;;;;;;;;;;4981341;28;1332;-67
2022/03/28 06:52:15;;;;;;;;;;;;;;;;;;4980764;28;1965;-68
2022/03/28 06:54:41;;;;;;;;;;;;;;;;;;4981850;28;1379;-68
2022/03/28 06:57:06;;;;;;;;;;;;;;;;;;4981138;28;1269;-68
2022/03/28 06:59:31;;;;;;;;;;;;;;;;;;4981900;28;1253;-68
2022/03/28 07:01:57;;;;;;;;;;;;;;;;;;4980930;28;1319;-68
2022/03/28 07:04:22;;;;;;;;;;;;;;;;;;4981349;28;1257;-67
2022/03/28 07:06:48;;;;;;;;;;;;;;;;;;4981484;28;1431;-68
2022/03/28 07:09:13;;;;;;;;;;;;;;;;;;4983856;28;1244;-68
2022/03/28 07:11:38;;;;;;;;;;;;;;;;;;4983151;28;1890;-68
2022/03/28 07:14:03;;;;;;;;;;;;;;;;;;4983727;28;1496;-68
2022/03/28 07:16:29;;;;;;;;;;;;;;;;;;4983808;28;1508;-68
2022/03/28 07:18:54;;;;;;;;;;;;;;;;;;4983462;28;1399;-68
2022/03/28 07:21:19;;;;;;;;;;;;;;;;;;4982221;28;1230;-68
2022/03/28 07:23:45;;;;;;;;;;;;;;;;;;4983746;28;1265;-68
2022/03/28 07:26:10;;;;;;;;;;;;;;;;;;4981665;28;1451;-68
2022/03/28 07:28:39;;;;;;;;;;;;;;;;;;4983266;28;1356;-68
2022/03/28 07:31:05;;;;;;;;;;;;;;;;;;4982271;28;1972;-67
2022/03/28 07:33:30;;;;;;;;;;;;;;;;;;4982800;28;1427;-68
2022/03/28 07:35:55;;;;;;;;;;;;;;;;;;4983527;28;1327;-68
2022/03/28 07:38:20;;;;;;;;;;;;;;;;;;4982263;28;1294;-67
2022/03/28 07:40:46;;;;;;;;;;;;;;;;;;4984025;28;1308;-67
2022/03/28 07:43:12;;;;;;;;;;;;;;;;;;4983915;28;1565;-67
2022/03/28 07:45:37;;;;;;;;;;;;;;;;;;4983591;28;1355;-68
2022/03/28 07:48:03;;;;;;;;;;;;;;;;;;4983645;28;1253;-68
2022/03/28 07:50:30;;;;;;;;;;;;;;;;;;4983298;28;1910;-69
2022/03/28 07:52:56;;;;;;;;;;;;;;;;;;4983771;28;1308;-70
2022/03/28 07:55:21;;;;;;;;;;;;;;;;;;4982497;28;1568;-70
2022/03/28 07:57:46;;;;;;;;;;;;;;;;;;4983471;28;1261;-70
2022/03/28 08:00:13;;;;;;;;;;;;;;;;;;4983133;28;1521;-70
2022/03/28 08:02:39;;;;;;;;;;;;;;;;;;4983880;28;1229;-70
2022/03/28 08:05:05;;;;;;;;;;;;;;;;;;4982529;28;1324;-70
2022/03/28 08:07:31;;;;;;;;;;;;;;;;;;4983073;28;1734;-70
2022/03/28 08:09:56;;;;;;;;;;;;;;;;;;4981868;28;1521;-70
2022/03/28 08:12:21;;;;;;;;;;;;;;;;;;4982773;28;1962;-70
2022/03/28 08:14:48;;;;;;;;;;;;;;;;;;4983292;28;1298;-70
2022/03/28 08:17:13;;;;;;;;;;;;;;;;;;4982399;28;1262;-70
2022/03/28 08:19:38;;;;;;;;;;;;;;;;;;4982249;28;1380;-70
2022/03/28 08:22:03;;;;;;;;;;;;;;;;;;4983171;28;1339;-69
2022/03/28 08:24:28;;;;;;;;;;;;;;;;;;4982575;28;1534;-69
2022/03/28 08:26:54;;;;;;;;;;;;;;;;;;4982507;28;1253;-69
2022/03/28 08:29:19;;;;;;;;;;;;;;;;;;4981651;28;1422;-70
2022/03/28 08:31:44;;;;;;;;;;;;;;;;;;4981677;28;1963;-70
2022/03/28 08:34:10;;;;;;;;;;;;;;;;;;4980512;28;1531;-69
2022/03/28 08:36:35;;;;;;;;;;;;;;;;;;4983420;28;1312;-69
2022/03/28 08:39:01;;;;;;;;;;;;;;;;;;4981630;28;1521;-70
2022/03/28 08:41:26;;;;;;;;;;;;;;;;;;4981531;28;1371;-70
2022/03/28 08:43:52;;;;;;;;;;;;;;;;;;4982345;28;1466;-69
2022/03/28 08:46:17;;;;;;;;;;;;;;;;;;4980169;28;1450;-70
2022/03/28 08:48:43;;;;;;;;;;;;;;;;;;4981741;28;1234;-69
2022/03/28 08:51:10;;;;;;;;;;;;;;;;;;4982938;28;1894;-72
2022/03/28 08:53:36;;;;;;;;;;;;;;;;;;4983388;28;1561;-71
2022/03/28 08:56:02;;;;;;;;;;;;;;;;;;4982286;28;1496;-72
2022/03/28 08:58:27;;;;;;;;;;;;;;;;;;4983949;28;2068;-71
2022/03/28 09:00:53;;;;;;;;;;;;;;;;;;4983157;28;1902;-72
2022/03/28 09:03:18;;;;;;;;;;;;;;;;;;4983478;28;1311;-73
2022/03/28 09:05:47;;;;;;;;;;;;;;;;;;4983222;28;2275;-71
2022/03/28 09:08:12;;;;;;;;;;;;;;;;;;4983524;28;1219;-71
2022/03/28 09:10:38;;;;;;;;;;;;;;;;;;4983414;28;1906;-73
2022/03/28 09:13:05;;;;;;;;;;;;;;;;;;4983378;28;1340;-72
2022/03/28 09:15:41;;;;;;;;;;;;;;;;;;4981694;28;1738;-73
2022/03/28 09:18:06;;;;;;;;;;;;;;;;;;4983063;28;1604;-71
2022/03/28 09:20:35;;;;;;;;;;;;;;;;;;4981597;28;1249;-71
2022/03/28 09:23:21;;;;;;;;;;;;;;;;;;4982418;28;1272;-72
2022/03/28 09:25:49;;;;;;;;;;;;;;;;;;4981896;28;1361;-71
2022/03/28 09:28:15;;;;;;;;;;;;;;;;;;4983231;28;1335;-72
2022/03/28 09:30:40;;;;;;;;;;;;;;;;;;4980541;28;1897;-71
2022/03/28 09:33:06;;;;;;;;;;;;;;;;;;4982055;28;1204;-73
2022/03/28 09:35:31;;;;;;;;;;;;;;;;;;4980618;28;1454;-71
2022/03/28 09:38:02;;;;;;;;;;;;;;;;;;4982304;28;1260;-73
2022/03/28 09:40:41;;;;;;;;;;;;;;;;;;4980119;28;1462;-71
2022/03/28 09:43:06;;;;;;;;;;;;;;;;;;4982334;28;1406;-72
2022/03/28 09:45:34;;;;;;;;;;;;;;;;;;4981052;28;1443;-70
2022/03/28 09:48:03;;;;;;;;;;;;;;;;;;4983841;28;1359;-72
2022/03/28 09:50:30;;;;;;;;;;;;;;;;;;4982168;28;1959;-73
2022/03/28 09:52:55;;;;;;;;;;;;;;;;;;4983321;28;1280;-75
2022/03/28 09:55:20;;;;;;;;;;;;;;;;;;4978664;28;1774;-77
2022/03/28 09:57:45;;;;;;;;;;;;;;;;;;4980784;28;1412;-77
2022/03/28 10:00:13;;;;;;;;;;;;;;;;;;4982696;28;1334;-76
2022/03/28 10:02:38;;;;;;;;;;;;;;;;;;4983103;28;1355;-77
2022/03/28 10:05:04;;;;;;;;;;;;;;;;;;4982235;28;1319;-77
2022/03/28 10:07:30;;;;;;;;;;;;;;;;;;4982557;28;1261;-76
2022/03/28 10:09:56;;;;;;;;;;;;;;;;;;4981874;28;1319;-76
2022/03/28 10:12:22;;;;;;;;;;;;;;;;;;4981747;28;1960;-76
2022/03/28 10:14:49;;;;;;;;;;;;;;;;;;4981346;28;1355;-76
2022/03/28 10:17:14;;;;;;;;;;;;;;;;;;4981699;28;1604;-76
2022/03/28 10:19:39;;;;;;;;;;;;;;;;;;4981687;28;1201;-76
2022/03/28 10:22:14;;;;;;;;;;;;;;;;;;4981802;28;1357;-77
2022/03/28 10:24:40;;;;;;;;;;;;;;;;;;4981563;28;1320;-76
2022/03/28 10:27:06;;;;;;;;;;;;;;;;;;4980903;28;1481;-76
2022/03/28 10:29:36;;;;;;;;;;;;;;;;;;4981638;28;1387;-76
2022/03/28 10:32:02;;;;;;;;;;;;;;;;;;4981999;28;1906;-77
2022/03/28 10:34:41;;;;;;;;;;;;;;;;;;4980998;28;1257;-77
2022/03/28 10:37:25;;;;;;;;;;;;;;;;;;4980438;28;1354;-77
2022/03/28 10:39:51;;;;;;;;;;;;;;;;;;4982533;28;1205;-76
2022/03/28 10:42:17;;;;;;;;;;;;;;;;;;4979441;28;1533;-76
2022/03/28 10:44:47;;;;;;;;;;;;;;;;;;4981351;28;2119;-79
2022/03/28 10:47:14;;;;;;;;;;;;;;;;;;4979023;28;1450;-75
2022/03/28 10:49:41;;;;;;;;;;;;;;;;;;4981043;28;1231;-76
2022/03/28 10:52:10;;;;;;;;;;;;;;;;;;4980693;28;1968;-78
2022/03/28 10:54:37;;;;;;;;;;;;;;;;;;4979083;28;1455;-77
2022/03/28 10:57:04;;;;;;;;;;;;;;;;;;4981451;28;1355;-72
2022/03/28 10:59:30;;;;;;;;;;;;;;;;;;4981826;28;1156;-72
2022/03/28 11:01:56;;;;;;;;;;;;;;;;;;4980291;28;1450;-73
2022/03/28 11:04:23;;;;;;;;;;;;;;;;;;4980414;28;1245;-71
2022/03/28 11:07:04;;;;;;;;;;;;;;;;;;4980901;28;1433;-70
2022/03/28 11:09:34;;;;;;;;;;;;;;;;;;4981863;28;1271;-71
2022/03/28 11:12:06;;;;;;;;;;;;;;;;;;4979082;28;1895;-72
2022/03/28 11:14:41;;;;;;;;;;;;;;;;;;4980528;28;1696;-72
2022/03/28 11:17:14;;;;;;;;;;;;;;;;;;4980111;28;1413;-72
2022/03/28 11:19:51;;;;;;;;;;;;;;;;;;4980876;28;1188;-72
2022/03/28 11:22:16;;;;;;;;;;;;;;;;;;4980908;28;1266;-72
2022/03/28 11:24:45;;;;;;;;;;;;;;;;;;4981583;28;1316;-71
2022/03/28 11:27:11;;;;;;;;;;;;;;;;;;4981303;28;1280;-71
2022/03/28 11:29:36;;;;;;;;;;;;;;;;;;4978863;28;1521;-72
2022/03/28 11:32:05;;;;;;;;;;;;;;;;;;4980421;28;1914;-71
2022/03/28 11:34:31;;;;;;;;;;;;;;;;;;4979360;28;1474;-71
2022/03/28 11:36:57;;;;;;;;;;;;;;;;;;4962378;28;1450;-71
2022/03/28 11:39:22;;;;;;;;;;;;;;;;;;4980492;28;1474;-73
2022/03/28 11:41:48;;;;;;;;;;;;;;;;;;4980174;28;1411;-75
2022/03/28 11:44:13;;;;;;;;;;;;;;;;;;4979108;28;1299;-75
2022/03/28 11:46:39;;;;;;;;;;;;;;;;;;4978205;28;1414;-73
2022/03/28 11:49:08;;;;;;;;;;;;;;;;;;4980123;28;1213;-74
2022/03/28 11:51:35;;;;;;;;;;;;;;;;;;4975218;28;1991;-74
2022/03/28 11:54:01;;;;;;;;;;;;;;;;;;4979937;28;1439;-71
2022/03/28 11:56:28;;;;;;;;;;;;;;;;;;4981380;28;1431;-72
2022/03/28 11:59:01;;;;;;;;;;;;;;;;;;4983015;28;1438;-71
2022/03/28 12:01:26;;;;;;;;;;;;;;;;;;4982857;28;1048;-70
2022/03/28 12:03:51;;;;;;;;;;;;;;;;;;4981899;28;1438;-70
2022/03/28 12:06:26;;;;;;;;;;;;;;;;;;4982970;28;1338;-70
2022/03/28 12:08:51;;;;;;;;;;;;;;;;;;4982353;28;1428;-69
2022/03/28 12:11:16;;;;;;;;;;;;;;;;;;4982783;28;1967;-69
2022/03/28 12:13:42;;;;;;;;;;;;;;;;;;4983145;28;1280;-69
2022/03/28 12:16:07;;;;;;;;;;;;;;;;;;4983205;28;1323;-67
2022/03/28 12:18:32;;;;;;;;;;;;;;;;;;4983652;28;1201;-71
2022/03/28 12:20:58;;;;;;;;;;;;;;;;;;4982121;28;1415;-70
2022/03/28 12:23:28;;;;;;;;;;;;;;;;;;4981821;28;1540;-68
2022/03/28 12:25:54;;;;;;;;;;;;;;;;;;4980634;28;1640;-69
2022/03/28 12:28:29;;;;;;;;;;;;;;;;;;4981897;28;1426;-67
2022/03/28 12:30:56;;;;;;;;;;;;;;;;;;4983050;28;1958;-68
2022/03/28 12:33:29;;;;;;;;;;;;;;;;;;4982699;28;1157;-68
2022/03/28 12:35:58;;;;;;;;;;;;;;;;;;4981934;28;1561;-69
2022/03/28 12:38:52;;;;;;;;;;;;;;;;;;4981973;28;1194;-68
2022/03/28 12:41:17;;;;;;;;;;;;;;;;;;4980474;28;1761;-67
2022/03/28 12:43:46;;;;;;;;;;;;;;;;;;4982779;28;1245;-68
2022/03/28 12:46:11;;;;;;;;;;;;;;;;;;4980982;28;1244;-68
2022/03/28 12:48:39;;;;;;;;;;;;;;;;;;4982339;28;1198;-68
2022/03/28 12:51:07;;;;;;;;;;;;;;;;;;4981256;28;1906;-69
2022/03/28 12:53:33;;;;;;;;;;;;;;;;;;4982010;28;1299;-69
2022/03/28 12:56:16;;;;;;;;;;;;;;;;;;4980635;28;1646;-69
2022/03/28 12:59:04;;;;;;;;;;;;;;;;;;4981958;28;1202;-69
2022/03/28 13:01:30;;;;;;;;;;;;;;;;;;4982485;28;1387;-68
2022/03/28 13:04:17;;;;;;;;;;;;;;;;;;4981688;28;1386;-68
2022/03/28 13:06:44;;;;;;;;;;;;;;;;;;4982206;28;1236;-68
2022/03/28 13:09:10;;;;;;;;;;;;;;;;;;4981072;28;1183;-68
2022/03/28 13:11:36;;;;;;;;;;;;;;;;;;4977974;28;1893;-68
2022/03/28 13:14:02;;;;;;;;;;;;;;;;;;4982455;28;1237;-68
2022/03/28 13:16:28;;;;;;;;;;;;;;;;;;4982255;28;1473;-72
2022/03/28 13:19:03;;;;;;;;;;;;;;;;;;4981839;28;1245;-71
2022/03/28 13:21:35;;;;;;;;;;;;;;;;;;4980872;28;1399;-71
2022/03/28 13:24:05;;;;;;;;;;;;;;;;;;4979508;28;1655;-71
2022/03/28 13:28:01;;;;;;;;;;;;;;;;;;4981700;28;1310;-71
2022/03/28 13:29:42;;;;;;;;;;;;;;;;;;4981215;28;1679;-71
2022/03/28 13:32:07;;;;;;;;;;;;;;;;;;4981954;28;1906;-71
2022/03/28 13:34:32;;;;;;;;;;;;;;;;;;4982931;28;1233;-71
2022/03/28 13:36:58;;;;;;;;;;;;;;;;;;4981545;28;1338;-72
2022/03/28 13:39:23;;;;;;;;;;;;;;;;;;4982294;28;1278;-71
2022/03/28 13:41:49;;;;;;;;;;;;;;;;;;4982338;28;1414;-71
2022/03/28 13:44:14;;;;;;;;;;;;;;;;;;4981592;28;1344;-71
2022/03/28 13:46:39;;;;;;;;;;;;;;;;;;4981830;28;1309;-71
2022/03/28 13:49:05;;;;;;;;;;;;;;;;;;4982382;28;1316;-71
2022/03/28 13:51:31;;;;;;;;;;;;;;;;;;4982362;28;1974;-72
2022/03/28 13:53:57;;;;;;;;;;;;;;;;;;4981865;28;1539;-71
2022/03/28 13:56:23;;;;;;;;;;;;;;;;;;4981215;28;1307;-72
2022/03/28 13:58:48;;;;;;;;;;;;;;;;;;4981017;28;1302;-71
2022/03/28 14:01:13;;;;;;;;;;;;;;;;;;4981729;28;1194;-72
2022/03/28 14:03:39;;;;;;;;;;;;;;;;;;4981826;28;1301;-72
2022/03/28 14:06:04;;;;;;;;;;;;;;;;;;4981768;28;1463;-71
2022/03/28 14:08:33;;;;;;;;;;;;;;;;;;4980291;28;1340;-71
2022/03/28 14:10:58;;;;;;;;;;;;;;;;;;4981619;28;1890;-72
2022/03/28 14:13:23;;;;;;;;;;;;;;;;;;4981646;28;1288;-71
2022/03/28 14:15:48;;;;;;;;;;;;;;;;;;4980732;28;1439;-71
2022/03/28 14:18:18;;;;;;;;;;;;;;;;;;4981535;28;1339;-71
2022/03/28 14:20:44;;;;;;;;;;;;;;;;;;4981200;28;1425;-71
2022/03/28 14:23:10;;;;;;;;;;;;;;;;;;4980597;28;1339;-71
2022/03/28 14:25:35;;;;;;;;;;;;;;;;;;4979577;28;1537;-72
2022/03/28 14:28:01;;;;;;;;;;;;;;;;;;4981504;28;1304;-72
2022/03/28 14:30:26;;;;;;;;;;;;;;;;;;4979415;28;1592;-72
2022/03/28 14:32:51;;;;;;;;;;;;;;;;;;4979998;28;1890;-71
2022/03/28 14:35:17;;;;;;;;;;;;;;;;;;4980713;28;1265;-72
2022/03/28 14:37:43;;;;;;;;;;;;;;;;;;4980286;28;1743;-72
2022/03/28 14:40:09;;;;;;;;;;;;;;;;;;4978918;28;1616;-71
2022/03/28 14:42:35;;;;;;;;;;;;;;;;;;4979605;28;1754;-72
2022/03/28 14:45:01;;;;;;;;;;;;;;;;;;4978989;28;1735;-71
2022/03/28 14:47:26;;;;;;;;;;;;;;;;;;4980799;28;1225;-71
2022/03/28 14:49:51;;;;;;;;;;;;;;;;;;4981106;28;1249;-70
2022/03/28 14:52:18;;;;;;;;;;;;;;;;;;4978881;28;1968;-72
2022/03/28 14:54:43;;;;;;;;;;;;;;;;;;4980699;28;1229;-71
2022/03/28 14:57:08;;;;;;;;;;;;;;;;;;4980557;28;1340;-72
2022/03/28 14:59:34;;;;;;;;;;;;;;;;;;4980243;28;1627;-72
2022/03/28 15:02:00;;;;;;;;;;;;;;;;;;4977219;28;1648;-72
2022/03/28 15:04:25;;;;;;;;;;;;;;;;;;4981997;28;1339;-72
2022/03/28 15:06:50;;;;;;;;;;;;;;;;;;4980258;28;1240;-70
2022/03/28 15:09:15;;;;;;;;;;;;;;;;;;4980322;28;1331;-70
2022/03/28 15:11:42;;;;;;;;;;;;;;;;;;4980806;28;1890;-71
2022/03/28 15:14:08;;;;;;;;;;;;;;;;;;4981135;28;1264;-70
2022/03/28 15:16:33;;;;;;;;;;;;;;;;;;4979788;28;1510;-71
2022/03/28 15:18:58;;;;;;;;;;;;;;;;;;4980703;28;1355;-72
2022/03/28 15:21:24;;;;;;;;;;;;;;;;;;4980887;28;1340;-70
2022/03/28 15:23:49;;;;;;;;;;;;;;;;;;4980119;28;1122;-71
2022/03/28 15:26:16;;;;;;;;;;;;;;;;;;4980404;28;1323;-71
2022/03/28 15:28:41;;;;;;;;;;;;;;;;;;4983131;28;1241;-71
2022/03/28 15:31:19;;;;;;;;;;;;;;;;;;4983925;28;1898;-72
2022/03/28 15:33:44;;;;;;;;;;;;;;;;;;4983552;28;1226;-71
2022/03/28 15:36:09;;;;;;;;;;;;;;;;;;4983614;28;1411;-72
2022/03/28 15:38:34;;;;;;;;;;;;;;;;;;4984094;28;1455;-71
2022/03/28 15:41:01;;;;;;;;;;;;;;;;;;4983229;28;1274;-70
2022/03/28 15:43:27;;;;;;;;;;;;;;;;;;4983875;28;1253;-71
2022/03/28 15:45:54;;;;;;;;;;;;;;;;;;4983680;28;1441;-71
2022/03/28 15:48:19;;;;;;;;;;;;;;;;;;4983337;28;1278;-72
2022/03/28 15:50:44;;;;;;;;;;;;;;;;;;4983539;28;2013;-71
2022/03/28 15:53:12;;;;;;;;;;;;;;;;;;4983021;28;1300;-72
2022/03/28 15:55:37;;;;;;;;;;;;;;;;;;4983129;28;1265;-72
2022/03/28 15:58:02;;;;;;;;;;;;;;;;;;4983577;28;1256;-71
2022/03/28 16:00:27;;;;;;;;;;;;;;;;;;4982016;28;1321;-71
2022/03/28 16:02:53;;;;;;;;;;;;;;;;;;4983074;28;1340;-71
2022/03/28 16:05:18;;;;;;;;;;;;;;;;;;4984116;28;1287;-71
2022/03/28 16:07:44;;;;;;;;;;;;;;;;;;4983619;28;1405;-72
2022/03/28 16:10:09;;;;;;;;;;;;;;;;;;4982827;28;1542;-71
2022/03/28 16:12:34;;;;;;;;;;;;;;;;;;4983473;28;1957;-73
2022/03/28 16:14:59;;;;;;;;;;;;;;;;;;4982513;28;1357;-71
2022/03/28 16:17:24;;;;;;;;;;;;;;;;;;4983770;28;1645;-70
2022/03/28 16:19:50;;;;;;;;;;;;;;;;;;4983358;28;1229;-71
2022/03/28 16:22:16;;;;;;;;;;;;;;;;;;4981060;28;1340;-71
2022/03/28 16:24:41;;;;;;;;;;;;;;;;;;4981346;28;1493;-70
2022/03/28 16:27:07;;;;;;;;;;;;;;;;;;4980116;28;1264;-71
2022/03/28 16:29:32;;;;;;;;;;;;;;;;;;4981785;28;1284;-71
2022/03/28 16:31:57;;;;;;;;;;;;;;;;;;4980793;28;1887;-72
2022/03/28 16:34:22;;;;;;;;;;;;;;;;;;4980780;28;1147;-71
2022/03/28 16:36:48;;;;;;;;;;;;;;;;;;4981893;28;1470;-71
2022/03/28 16:39:13;;;;;;;;;;;;;;;;;;4981273;28;1238;-71
2022/03/28 16:41:39;;;;;;;;;;;;;;;;;;4981218;28;1369;-71
2022/03/28 16:44:04;;;;;;;;;;;;;;;;;;4964744;28;1403;-71
2022/03/28 16:46:30;;;;;;;;;;;;;;;;;;4979642;28;1414;-70
2022/03/28 16:48:55;;;;;;;;;;;;;;;;;;4981130;28;1260;-71
2022/03/28 16:51:21;;;;;;;;;;;;;;;;;;4981776;28;1968;-72
2022/03/28 16:53:46;;;;;;;;;;;;;;;;;;4982131;28;1375;-71
2022/03/28 16:56:14;;;;;;;;;;;;;;;;;;4981328;28;1365;-71
2022/03/28 16:58:39;;;;;;;;;;;;;;;;;;4981521;28;1351;-71
2022/03/28 17:01:05;;;;;;;;;;;;;;;;;;4981740;28;1394;-71